Time;durP1;ratioP1;P1;durP2;ratioP2;P2;SDS_P1;SDS_P2;PMS_P1;PMS_P2;Temp;Humidity;BMP_temperature;BMP_pressure;BME280_temperature;BME280_humidity;BME280_pressure;Samples;Min_cycle;Max_cycle;Signal;HPM_P1;HPM_P2
2022/01/04 19:12:25;;;;;;;;;18.00;14.25;;;;;;;;6183885;22;1497559;-77
2022/01/04 19:14:50;;;;;;;;;6.25;3.00;;;;;;;;6251638;22;8817;-80
2022/01/04 19:17:36;;;;;;;;;2.00;1.00;;;;;;;;6230080;22;8752;-81
2022/01/04 19:20:02;;;;;;;;;18.50;9.75;;;;;;;;6252802;22;10632;-81
2022/01/04 19:30:15;;;;;;;;;3.75;0.25;;;;;;;;6221358;22;8790;-79
2022/01/04 19:37:53;;;;;;;;;4.25;1.00;;;;;;;;6249381;22;8767;-78
2022/01/04 19:43:28;;;;;;;;;2.50;1.75;;;;;;;;6220121;22;8888;-76
2022/01/04 19:45:54;;;;;;;;;3.25;1.00;;;;;;;;6214556;22;8846;-80
2022/01/04 19:48:26;;;;;;;;;2.00;2.00;;;;;;;;6248012;22;8886;-76
2022/01/04 20:01:10;;;;;;;;;0.50;0.50;;;;;;;;6265739;22;8839;-77
2022/01/04 20:03:36;;;;;;;;;2.00;1.00;;;;;;;;6419896;22;8783;-74
2022/01/04 20:06:01;;;;;;;;;0.50;0.50;;;;;;;;6405429;22;8803;-77
2022/01/04 20:08:26;;;;;;;;;0.00;0.00;;;;;;;;6379435;22;8869;-77
2022/01/04 20:10:51;;;;;;;;;1.00;1.00;;;;;;;;6429329;22;8760;-76
2022/01/04 20:13:17;;;;;;;;;2.25;2.25;;;;;;;;6399094;22;8841;-72
2022/01/04 20:15:42;;;;;;;;;3.00;1.00;;;;;;;;6418595;22;8761;-75
2022/01/04 20:18:08;;;;;;;;;1.00;1.00;;;;;;;;6379336;22;8756;-75
2022/01/04 20:20:34;;;;;;;;;0.00;0.00;;;;;;;;6414188;22;8765;-76
2022/01/04 20:22:59;;;;;;;;;1.00;1.00;;;;;;;;6399033;22;8708;-75
2022/01/04 20:25:24;;;;;;;;;1.00;0.75;;;;;;;;6397057;22;8797;-74
2022/01/04 20:33:03;;;;;;;;;0.75;0.75;;;;;;;;6276417;22;8852;-90
2022/01/04 20:35:29;;;;;;;;;1.00;1.00;;;;;;;;6327059;22;9957;-89
2022/01/04 20:37:54;;;;;;;;;1.50;1.00;;;;;;;;6229686;22;8797;-92
2022/01/04 20:40:19;;;;;;;;;4.00;1.00;;;;;;;;6222385;22;9671;-92
2022/01/04 20:42:48;;;;;;;;;0.25;0.25;;;;;;;;6328267;22;8812;-92
2022/01/04 20:45:13;;;;;;;;;0.75;0.75;;;;;;;;6328842;22;8769;-93
2022/01/04 20:47:39;;;;;;;;;5.50;3.00;;;;;;;;6225819;22;8762;-92
2022/01/04 20:50:08;;;;;;;;;0.75;0.75;;;;;;;;6325945;22;8785;-94
2022/01/04 20:52:33;;;;;;;;;0.00;0.00;;;;;;;;6221769;22;8788;-92
2022/01/04 20:54:59;;;;;;;;;0.00;0.00;;;;;;;;6326193;22;8808;-92
2022/01/04 20:57:24;;;;;;;;;0.00;0.00;;;;;;;;6225108;22;8770;-92
2022/01/04 20:59:49;;;;;;;;;0.00;0.00;;;;;;;;6222013;22;8762;-94
2022/01/04 21:02:14;;;;;;;;;0.00;0.00;;;;;;;;6328784;22;8770;-90
2022/01/04 21:04:40;;;;;;;;;0.00;0.00;;;;;;;;6328274;22;8770;-95
2022/01/04 21:07:05;;;;;;;;;0.00;0.00;;;;;;;;6329408;22;8777;-93
2022/01/04 21:09:48;;;;;;;;;0.00;0.00;;;;;;;;6227228;22;8897;-77
2022/01/04 21:12:19;;;;;;;;;0.00;0.00;;;;;;;;6334596;22;9485;-76
2022/01/04 21:17:22;;;;;;;;;0.00;0.00;;;;;;;;6222255;22;8731;-94
2022/01/04 21:19:48;;;;;;;;;0.00;0.00;;;;;;;;6330749;22;8785;-94
2022/01/04 21:22:13;;;;;;;;;0.00;0.00;;;;;;;;6329016;22;8778;-94
2022/01/04 21:24:38;;;;;;;;;0.00;0.00;;;;;;;;6330286;22;8762;-95
2022/01/04 21:27:06;;;;;;;;;1.00;0.00;;;;;;;;6329794;22;8785;-96
2022/01/04 21:29:31;;;;;;;;;0.00;0.00;;;;;;;;6224821;22;10511;-95
2022/01/04 21:31:56;;;;;;;;;0.00;0.00;;;;;;;;6223356;22;8794;-95
2022/01/04 21:34:24;;;;;;;;;0.00;0.00;;;;;;;;6330845;22;8762;-95
2022/01/04 21:36:49;;;;;;;;;5.75;2.25;;;;;;;;6331916;22;9103;-95
2022/01/04 21:39:14;;;;;;;;;1.00;0.00;;;;;;;;6330189;22;8777;-93
2022/01/04 21:41:48;;;;;;;;;0.00;0.00;;;;;;;;6223642;22;8789;-94
2022/01/04 21:44:14;;;;;;;;;0.00;0.00;;;;;;;;6224635;22;9807;-95
2022/01/04 21:46:39;;;;;;;;;4.00;1.00;;;;;;;;6330277;22;8766;-94
2022/01/04 21:49:18;;;;;;;;;0.50;0.50;;;;;;;;6329271;22;8762;-91
2022/01/04 21:51:49;;;;;;;;;0.00;0.00;;;;;;;;6311291;22;8832;-78
2022/01/04 21:54:15;;;;;;;;;0.00;0.00;;;;;;;;6222087;22;8870;-94
2022/01/04 21:56:41;;;;;;;;;0.00;0.00;;;;;;;;6329046;22;8766;-94
2022/01/04 21:59:06;;;;;;;;;0.00;0.00;;;;;;;;6221994;22;8765;-94
2022/01/04 22:01:31;;;;;;;;;0.00;0.00;;;;;;;;6327371;22;8800;-94
2022/01/04 22:03:57;;;;;;;;;0.00;0.00;;;;;;;;6224221;22;8765;-94
2022/01/04 22:06:50;;;;;;;;;0.00;0.00;;;;;;;;6305052;22;8802;-81
2022/01/04 22:09:15;;;;;;;;;0.00;0.00;;;;;;;;6222239;22;8805;-94
2022/01/04 22:11:40;;;;;;;;;0.00;0.00;;;;;;;;6327312;22;8831;-93
2022/01/04 22:14:06;;;;;;;;;0.25;0.00;;;;;;;;6222391;22;8762;-92
2022/01/04 22:16:31;;;;;;;;;0.00;0.00;;;;;;;;6327128;22;8762;-92
2022/01/04 22:18:56;;;;;;;;;1.75;0.00;;;;;;;;6325566;22;8794;-92
2022/01/04 22:21:23;;;;;;;;;0.00;0.00;;;;;;;;6221791;22;8888;-91
2022/01/04 22:23:49;;;;;;;;;0.50;0.00;;;;;;;;6219846;22;8762;-93
2022/01/04 22:26:14;;;;;;;;;0.00;0.00;;;;;;;;6324690;22;8826;-91
2022/01/04 22:29:00;;;;;;;;;4.33;0.00;;;;;;;;6328500;22;8781;-91
2022/01/04 22:31:25;;;;;;;;;1.00;0.00;;;;;;;;6227797;22;10524;-91
2022/01/04 22:33:50;;;;;;;;;1.00;1.00;;;;;;;;6225009;22;8718;-90
2022/01/04 22:36:44;;;;;;;;;;;;;;;;;;;;;
2022/01/04 22:39:09;;;;;;;;;0.00;0.00;;;;;;;;6222632;22;36682;-91
2022/01/04 22:44:48;;;;;;;;;0.00;0.00;;;;;;;;6263247;22;8777;-92
2022/01/04 22:47:13;;;;;;;;;2.00;0.50;;;;;;;;6329889;22;8896;-92
2022/01/04 22:50:24;;;;;;;;;;;;;;;;;;;;;
2022/01/04 22:59:28;;;;;;;;;0.00;0.00;;;;;;;;6221692;23;8742;-91
2022/01/04 23:01:53;;;;;;;;;2.50;0.00;;;;;;;;6326767;22;9374;-91
2022/01/04 23:04:18;;;;;;;;;0.33;0.00;;;;;;;;6219953;22;8778;-92
2022/01/04 23:08:04;;;;;;;;;0.00;0.00;;;;;;;;6220687;22;9550;-91
2022/01/04 23:09:58;;;;;;;;;0.50;0.25;;;;;;;;6202857;23;8821;-91
2022/01/04 23:15:31;;;;;;;;;1.00;0.00;;;;;;;;6219047;23;9857;-92
2022/01/04 23:20:50;;;;;;;;;0.00;0.00;;;;;;;;6225999;23;8739;-91
2022/01/04 23:23:15;;;;;;;;;1.00;0.00;;;;;;;;6225512;23;8833;-91
2022/01/04 23:25:41;;;;;;;;;0.00;0.00;;;;;;;;6226229;23;9686;-91
2022/01/04 23:28:06;;;;;;;;;1.00;0.50;;;;;;;;6225984;23;9526;-91
2022/01/04 23:30:37;;;;;;;;;0.00;0.00;;;;;;;;6200735;23;8755;-91
2022/01/04 23:33:03;;;;;;;;;0.00;0.00;;;;;;;;6200648;23;8767;-91
2022/01/04 23:35:57;;;;;;;;;0.00;0.00;;;;;;;;6226214;23;8762;-92
2022/01/04 23:38:24;;;;;;;;;0.50;0.25;;;;;;;;6211191;23;8683;-92
2022/01/04 23:40:49;;;;;;;;;0.00;0.00;;;;;;;;6200783;23;8747;-92
2022/01/04 23:43:14;;;;;;;;;0.00;0.00;;;;;;;;6225704;23;8793;-92
2022/01/04 23:45:40;;;;;;;;;0.00;0.00;;;;;;;;6224194;23;8775;-92
2022/01/04 23:48:05;;;;;;;;;0.50;0.50;;;;;;;;6225156;23;8865;-91
2022/01/04 23:50:39;;;;;;;;;1.25;0.00;;;;;;;;6330664;22;8790;-92
2022/01/04 23:53:05;;;;;;;;;0.00;0.00;;;;;;;;6330799;22;8722;-92
2022/01/04 23:58:33;;;;;;;;;0.00;0.00;;;;;;;;6229202;23;8683;-92
